sensor_id;sensor_type;location;lat;lon;timestamp;pressure;altitude;pressure_sealevel;temperature;humidity
71970;BME280;59838;52.152;5.436;2022-07-26T00:00:00;101383.94;;;18.41;82.33
71970;BME280;59838;52.152;5.436;2022-07-26T00:02:28;101380.94;;;18.37;82.86
71970;BME280;59838;52.152;5.436;2022-07-26T00:04:54;101383.22;;;18.34;82.69
71970;BME280;59838;52.152;5.436;2022-07-26T00:07:21;101381.81;;;18.31;82.89
71970;BME280;59838;52.152;5.436;2022-07-26T00:09:47;101377.00;;;18.28;83.28
71970;BME280;59838;52.152;5.436;2022-07-26T00:12:14;101383.53;;;18.25;83.45
71970;BME280;59838;52.152;5.436;2022-07-26T00:14:42;101389.22;;;18.22;83.27
71970;BME280;59838;52.152;5.436;2022-07-26T00:17:08;101389.66;;;18.19;83.60
71970;BME280;59838;52.152;5.436;2022-07-26T00:19:35;101393.72;;;18.15;83.67
71970;BME280;59838;52.152;5.436;2022-07-26T00:22:01;101383.66;;;18.12;83.89
71970;BME280;59838;52.152;5.436;2022-07-26T00:25:07;101396.22;;;18.10;83.66
71970;BME280;59838;52.152;5.436;2022-07-26T00:27:34;101386.94;;;18.07;83.97
71970;BME280;59838;52.152;5.436;2022-07-26T00:30:05;101384.09;;;18.09;84.53
71970;BME280;59838;52.152;5.436;2022-07-26T00:32:32;101396.22;;;18.10;84.69
71970;BME280;59838;52.152;5.436;2022-07-26T00:34:59;101386.50;;;18.11;84.59
71970;BME280;59838;52.152;5.436;2022-07-26T00:37:25;101403.09;;;18.11;84.72
71970;BME280;59838;52.152;5.436;2022-07-26T00:39:52;101400.25;;;18.13;84.96
71970;BME280;59838;52.152;5.436;2022-07-26T00:42:18;101406.09;;;18.15;85.02
71970;BME280;59838;52.152;5.436;2022-07-26T00:44:45;101402.41;;;18.16;85.19
71970;BME280;59838;52.152;5.436;2022-07-26T00:47:12;101396.94;;;18.17;85.23
71970;BME280;59838;52.152;5.436;2022-07-26T00:49:40;101407.03;;;18.20;85.37
71970;BME280;59838;52.152;5.436;2022-07-26T00:52:08;101402.16;;;18.24;85.30
71970;BME280;59838;52.152;5.436;2022-07-26T00:54:36;101404.56;;;18.25;85.55
71970;BME280;59838;52.152;5.436;2022-07-26T00:57:03;101411.63;;;18.25;85.33
71970;BME280;59838;52.152;5.436;2022-07-26T00:59:30;101407.78;;;18.27;85.64
71970;BME280;59838;52.152;5.436;2022-07-26T01:01:57;101404.91;;;18.29;85.40
71970;BME280;59838;52.152;5.436;2022-07-26T01:04:24;101406.50;;;18.30;85.68
71970;BME280;59838;52.152;5.436;2022-07-26T01:06:50;101403.66;;;18.32;85.71
71970;BME280;59838;52.152;5.436;2022-07-26T01:09:18;101408.13;;;18.31;85.97
71970;BME280;59838;52.152;5.436;2022-07-26T01:11:51;101410.53;;;18.33;85.56
71970;BME280;59838;52.152;5.436;2022-07-26T01:14:21;101407.69;;;18.34;85.50
71970;BME280;59838;52.152;5.436;2022-07-26T01:16:49;101412.72;;;18.36;85.95
71970;BME280;59838;52.152;5.436;2022-07-26T01:19:15;101405.06;;;18.34;85.87
71970;BME280;59838;52.152;5.436;2022-07-26T01:21:42;101406.06;;;18.33;85.66
71970;BME280;59838;52.152;5.436;2022-07-26T01:24:08;101407.69;;;18.34;86.00
71970;BME280;59838;52.152;5.436;2022-07-26T01:26:36;101406.06;;;18.33;85.93
71970;BME280;59838;52.152;5.436;2022-07-26T01:29:03;101404.47;;;18.32;85.69
71970;BME280;59838;52.152;5.436;2022-07-26T01:31:30;101394.41;;;18.29;86.06
71970;BME280;59838;52.152;5.436;2022-07-26T01:33:57;101397.25;;;18.27;86.06
71970;BME280;59838;52.152;5.436;2022-07-26T01:36:23;101396.91;;;18.24;86.12
71970;BME280;59838;52.152;5.436;2022-07-26T01:38:50;101392.84;;;18.21;85.85
71970;BME280;59838;52.152;5.436;2022-07-26T01:41:16;101383.00;;;18.17;85.67
71970;BME280;59838;52.152;5.436;2022-07-26T01:43:55;101400.25;;;18.13;85.81
71970;BME280;59838;52.152;5.436;2022-07-26T01:46:22;101394.81;;;18.07;85.82
71970;BME280;59838;52.152;5.436;2022-07-26T01:48:50;101398.34;;;18.01;85.57
71970;BME280;59838;52.152;5.436;2022-07-26T01:51:17;101405.47;;;17.94;85.91
71970;BME280;59838;52.152;5.436;2022-07-26T01:53:43;101399.06;;;17.90;85.63
71970;BME280;59838;52.152;5.436;2022-07-26T01:56:12;101407.34;;;17.87;85.70
71970;BME280;59838;52.152;5.436;2022-07-26T01:58:39;101408.38;;;17.86;85.59
71970;BME280;59838;52.152;5.436;2022-07-26T02:01:07;101407.78;;;17.84;85.55
71970;BME280;59838;52.152;5.436;2022-07-26T02:03:34;101414.88;;;17.83;85.79
71970;BME280;59838;52.152;5.436;2022-07-26T02:06:01;101410.84;;;17.81;85.88
71970;BME280;59838;52.152;5.436;2022-07-26T02:08:27;101406.16;;;17.83;85.82
71970;BME280;59838;52.152;5.436;2022-07-26T02:10:54;101408.22;;;17.81;85.58
71970;BME280;59838;52.152;5.436;2022-07-26T02:13:34;101405.44;;;17.76;85.46
71970;BME280;59838;52.152;5.436;2022-07-26T02:16:02;101403.03;;;17.74;85.37
71970;BME280;59838;52.152;5.436;2022-07-26T02:18:30;101402.66;;;17.70;85.18
71970;BME280;59838;52.152;5.436;2022-07-26T02:20:58;101412.34;;;17.70;84.38
71970;BME280;59838;52.152;5.436;2022-07-26T02:23:25;101408.13;;;17.69;84.20
71970;BME280;59838;52.152;5.436;2022-07-26T02:25:52;101411.19;;;17.66;84.07
71970;BME280;59838;52.152;5.436;2022-07-26T02:28:18;101416.03;;;17.62;83.92
71970;BME280;59838;52.152;5.436;2022-07-26T02:30:45;101419.13;;;17.59;84.08
71970;BME280;59838;52.152;5.436;2022-07-26T02:33:12;101418.94;;;17.54;83.99
71970;BME280;59838;52.152;5.436;2022-07-26T02:35:40;101429.91;;;17.51;83.85
71970;BME280;59838;52.152;5.436;2022-07-26T02:38:09;101431.13;;;17.48;83.60
71970;BME280;59838;52.152;5.436;2022-07-26T02:40:36;101427.91;;;17.46;83.58
71970;BME280;59838;52.152;5.436;2022-07-26T02:43:05;101435.78;;;17.46;83.80
71970;BME280;59838;52.152;5.436;2022-07-26T02:45:32;101429.13;;;17.44;83.78
71970;BME280;59838;52.152;5.436;2022-07-26T02:47:58;101431.75;;;17.44;83.81
71970;BME280;59838;52.152;5.436;2022-07-26T02:50:26;101439.06;;;17.42;83.91
71970;BME280;59838;52.152;5.436;2022-07-26T02:52:54;101438.22;;;17.41;83.88
71970;BME280;59838;52.152;5.436;2022-07-26T02:55:23;101442.69;;;17.41;83.85
71970;BME280;59838;52.152;5.436;2022-07-26T02:57:50;101435.84;;;17.40;83.74
71970;BME280;59838;52.152;5.436;2022-07-26T03:00:20;101440.28;;;17.39;84.00
71970;BME280;59838;52.152;5.436;2022-07-26T03:02:47;101446.78;;;17.36;83.54
71970;BME280;59838;52.152;5.436;2022-07-26T03:05:14;101444.56;;;17.33;83.61
71970;BME280;59838;52.152;5.436;2022-07-26T03:07:41;101439.16;;;17.28;83.59
71970;BME280;59838;52.152;5.436;2022-07-26T03:10:08;101447.03;;;17.28;83.58
71970;BME280;59838;52.152;5.436;2022-07-26T03:12:39;101453.13;;;17.22;83.80
71970;BME280;59838;52.152;5.436;2022-07-26T03:15:06;101453.97;;;17.16;84.00
71970;BME280;59838;52.152;5.436;2022-07-26T03:17:34;101456.22;;;17.12;84.16
71970;BME280;59838;52.152;5.436;2022-07-26T03:20:00;101460.84;;;17.10;84.18
71970;BME280;59838;52.152;5.436;2022-07-26T03:22:27;101463.09;;;17.07;84.14
71970;BME280;59838;52.152;5.436;2022-07-26T03:24:54;101461.69;;;17.04;84.40
71970;BME280;59838;52.152;5.436;2022-07-26T03:27:20;101461.28;;;17.00;84.49
71970;BME280;59838;52.152;5.436;2022-07-26T03:29:47;101468.78;;;16.97;84.23
71970;BME280;59838;52.152;5.436;2022-07-26T03:32:13;101478.13;;;16.93;84.32
71970;BME280;59838;52.152;5.436;2022-07-26T03:34:40;101478.53;;;16.90;84.77
71970;BME280;59838;52.152;5.436;2022-07-26T03:37:06;101470.88;;;16.88;85.10
71970;BME280;59838;52.152;5.436;2022-07-26T03:39:33;101477.31;;;16.86;85.14
71970;BME280;59838;52.152;5.436;2022-07-26T03:41:59;101480.94;;;16.85;85.12
71970;BME280;59838;52.152;5.436;2022-07-26T03:44:25;101482.16;;;16.82;85.13
71970;BME280;59838;52.152;5.436;2022-07-26T03:46:52;101477.53;;;16.77;85.17
71970;BME280;59838;52.152;5.436;2022-07-26T03:49:18;101480.78;;;16.73;85.12
71970;BME280;59838;52.152;5.436;2022-07-26T03:51:45;101485.44;;;16.71;85.17
71970;BME280;59838;52.152;5.436;2022-07-26T03:54:11;101484.00;;;16.68;85.07
71970;BME280;59838;52.152;5.436;2022-07-26T03:56:39;101485.44;;;16.64;85.22
71970;BME280;59838;52.152;5.436;2022-07-26T03:59:07;101485.06;;;16.60;85.32
71970;BME280;59838;52.152;5.436;2022-07-26T04:01:36;101489.09;;;16.56;85.39
71970;BME280;59838;52.152;5.436;2022-07-26T04:04:08;101485.88;;;16.54;85.23
71970;BME280;59838;52.152;5.436;2022-07-26T04:06:35;101488.50;;;16.54;85.55
71970;BME280;59838;52.152;5.436;2022-07-26T04:09:03;101487.72;;;16.54;85.28
71970;BME280;59838;52.152;5.436;2022-07-26T04:11:31;101478.41;;;16.51;85.37
71970;BME280;59838;52.152;5.436;2022-07-26T04:13:58;101486.28;;;16.51;85.85
71970;BME280;59838;52.152;5.436;2022-07-26T04:16:25;101491.53;;;16.51;85.69
71970;BME280;59838;52.152;5.436;2022-07-26T04:18:53;101495.16;;;16.50;86.19
71970;BME280;59838;52.152;5.436;2022-07-26T04:21:19;101504.06;;;16.49;86.00
71970;BME280;59838;52.152;5.436;2022-07-26T04:23:46;101501.44;;;16.49;86.11
71970;BME280;59838;52.152;5.436;2022-07-26T04:26:17;101509.09;;;16.51;86.34
71970;BME280;59838;52.152;5.436;2022-07-26T04:28:44;101510.69;;;16.52;86.23
71970;BME280;59838;52.152;5.436;2022-07-26T04:31:11;101513.94;;;16.54;86.27
71970;BME280;59838;52.152;5.436;2022-07-26T04:33:38;101511.91;;;16.56;86.32
71970;BME280;59838;52.152;5.436;2022-07-26T04:36:04;101504.03;;;16.62;86.48
71970;BME280;59838;52.152;5.436;2022-07-26T04:38:31;101517.09;;;16.76;85.90
71970;BME280;59838;52.152;5.436;2022-07-26T04:40:57;101515.84;;;16.92;85.64
71970;BME280;59838;52.152;5.436;2022-07-26T04:43:24;101522.00;;;17.17;85.24
71970;BME280;59838;52.152;5.436;2022-07-26T04:45:51;101518.84;;;17.72;83.27
71970;BME280;59838;52.152;5.436;2022-07-26T04:48:18;101515.19;;;18.05;81.92
71970;BME280;59838;52.152;5.436;2022-07-26T04:50:44;101520.66;;;19.33;78.56
71970;BME280;59838;52.152;5.436;2022-07-26T04:53:11;101512.03;;;20.87;72.40
71970;BME280;59838;52.152;5.436;2022-07-26T04:55:38;101512.50;;;22.09;67.97
71970;BME280;59838;52.152;5.436;2022-07-26T04:58:05;101521.44;;;22.86;63.92
71970;BME280;59838;52.152;5.436;2022-07-26T05:00:32;101520.38;;;21.53;67.26
71970;BME280;59838;52.152;5.436;2022-07-26T05:03:12;101520.13;;;20.33;71.68
71970;BME280;59838;52.152;5.436;2022-07-26T05:05:38;101525.25;;;19.68;74.01
71970;BME280;59838;52.152;5.436;2022-07-26T05:08:04;101532.31;;;19.26;76.40
71970;BME280;59838;52.152;5.436;2022-07-26T05:10:34;101539.03;;;18.91;78.09
71970;BME280;59838;52.152;5.436;2022-07-26T05:13:04;101537.03;;;18.68;79.29
71970;BME280;59838;52.152;5.436;2022-07-26T05:15:31;101542.47;;;18.55;79.33
71970;BME280;59838;52.152;5.436;2022-07-26T05:18:05;101543.00;;;18.38;80.70
71970;BME280;59838;52.152;5.436;2022-07-26T05:20:36;101539.63;;;18.31;81.21
71970;BME280;59838;52.152;5.436;2022-07-26T05:23:03;101550.22;;;18.24;81.37
71970;BME280;59838;52.152;5.436;2022-07-26T05:25:30;101549.03;;;18.20;82.42
71970;BME280;59838;52.152;5.436;2022-07-26T05:27:56;101557.56;;;18.16;83.21
71970;BME280;59838;52.152;5.436;2022-07-26T05:30:23;101553.78;;;18.12;84.29
71970;BME280;59838;52.152;5.436;2022-07-26T05:32:49;101560.03;;;18.11;85.12
71970;BME280;59838;52.152;5.436;2022-07-26T05:35:16;101548.34;;;18.06;85.13
71970;BME280;59838;52.152;5.436;2022-07-26T05:37:42;101557.88;;;18.01;85.09
71970;BME280;59838;52.152;5.436;2022-07-26T05:40:09;101561.88;;;17.78;86.46
71970;BME280;59838;52.152;5.436;2022-07-26T05:42:36;101564.47;;;17.53;87.20
71970;BME280;59838;52.152;5.436;2022-07-26T05:45:04;101567.97;;;17.40;88.15
71970;BME280;59838;52.152;5.436;2022-07-26T05:47:30;101572.38;;;17.46;88.09
71970;BME280;59838;52.152;5.436;2022-07-26T05:49:57;101580.22;;;17.53;88.54
71970;BME280;59838;52.152;5.436;2022-07-26T05:52:23;101583.44;;;17.55;89.00
71970;BME280;59838;52.152;5.436;2022-07-26T05:54:50;101577.34;;;17.61;89.12
71970;BME280;59838;52.152;5.436;2022-07-26T05:57:16;101589.03;;;17.65;88.42
71970;BME280;59838;52.152;5.436;2022-07-26T05:59:43;101589.44;;;17.69;88.70
71970;BME280;59838;52.152;5.436;2022-07-26T06:02:09;101587.41;;;17.71;88.37
71970;BME280;59838;52.152;5.436;2022-07-26T06:04:36;101591.59;;;17.79;88.70
71970;BME280;59838;52.152;5.436;2022-07-26T06:07:03;101587.88;;;17.86;88.88
71970;BME280;59838;52.152;5.436;2022-07-26T06:09:29;101601.47;;;17.90;88.66
71970;BME280;59838;52.152;5.436;2022-07-26T06:11:55;101598.84;;;17.90;88.46
71970;BME280;59838;52.152;5.436;2022-07-26T06:14:22;101606.72;;;17.90;88.45
71970;BME280;59838;52.152;5.436;2022-07-26T06:16:50;101606.28;;;17.86;88.53
71970;BME280;59838;52.152;5.436;2022-07-26T06:19:16;101612.59;;;17.85;89.11
71970;BME280;59838;52.152;5.436;2022-07-26T06:21:43;101619.25;;;17.81;89.09
71970;BME280;59838;52.152;5.436;2022-07-26T06:24:11;101630.03;;;17.73;88.16
71970;BME280;59838;52.152;5.436;2022-07-26T06:26:38;101629.31;;;17.59;87.54
71970;BME280;59838;52.152;5.436;2022-07-26T06:29:05;101631.72;;;17.61;87.47
71970;BME280;59838;52.152;5.436;2022-07-26T06:31:31;101632.94;;;17.58;87.38
71970;BME280;59838;52.152;5.436;2022-07-26T06:34:01;101634.34;;;17.61;87.48
71970;BME280;59838;52.152;5.436;2022-07-26T06:36:35;101635.75;;;17.63;87.11
71970;BME280;59838;52.152;5.436;2022-07-26T06:39:01;101636.13;;;17.67;87.19
71970;BME280;59838;52.152;5.436;2022-07-26T06:41:28;101638.94;;;17.72;87.08
71970;BME280;59838;52.152;5.436;2022-07-26T06:43:54;101645.97;;;17.78;86.97
71970;BME280;59838;52.152;5.436;2022-07-26T06:46:21;101645.75;;;17.80;87.50
71970;BME280;59838;52.152;5.436;2022-07-26T06:48:49;101653.25;;;17.76;87.14
71970;BME280;59838;52.152;5.436;2022-07-26T06:51:22;101654.47;;;17.73;87.55
71970;BME280;59838;52.152;5.436;2022-07-26T06:53:50;101653.84;;;17.78;86.93
71970;BME280;59838;52.152;5.436;2022-07-26T06:56:17;101657.69;;;17.82;87.26
71970;BME280;59838;52.152;5.436;2022-07-26T06:58:45;101661.69;;;17.85;86.79
71970;BME280;59838;52.152;5.436;2022-07-26T07:01:14;101662.31;;;17.87;86.73
71970;BME280;59838;52.152;5.436;2022-07-26T07:04:00;101666.56;;;17.88;86.91
71970;BME280;59838;52.152;5.436;2022-07-26T07:06:28;101665.53;;;17.96;87.36
71970;BME280;59838;52.152;5.436;2022-07-26T07:08:56;101671.34;;;18.04;86.11
71970;BME280;59838;52.152;5.436;2022-07-26T07:11:23;101663.84;;;18.08;86.00
71970;BME280;59838;52.152;5.436;2022-07-26T07:13:54;101669.06;;;18.15;85.89
71970;BME280;59838;52.152;5.436;2022-07-26T07:16:21;101668.69;;;18.11;86.02
71970;BME280;59838;52.152;5.436;2022-07-26T07:18:47;101684.94;;;17.95;85.58
71970;BME280;59838;52.152;5.436;2022-07-26T07:21:14;101688.88;;;17.72;85.72
71970;BME280;59838;52.152;5.436;2022-07-26T07:23:40;101693.78;;;17.55;86.59
71970;BME280;59838;52.152;5.436;2022-07-26T07:26:07;101694.53;;;17.62;85.91
71970;BME280;59838;52.152;5.436;2022-07-26T07:28:36;101702.88;;;17.59;85.52
71970;BME280;59838;52.152;5.436;2022-07-26T07:31:05;101702.84;;;17.66;85.42
71970;BME280;59838;52.152;5.436;2022-07-26T07:33:33;101714.09;;;17.80;86.25
71970;BME280;59838;52.152;5.436;2022-07-26T07:36:18;101709.81;;;17.92;86.39
71970;BME280;59838;52.152;5.436;2022-07-26T07:38:44;101712.38;;;18.05;85.65
71970;BME280;59838;52.152;5.436;2022-07-26T07:41:20;101713.34;;;18.18;85.80
71970;BME280;59838;52.152;5.436;2022-07-26T07:43:49;101716.03;;;18.36;85.24
71970;BME280;59838;52.152;5.436;2022-07-26T07:46:15;101714.78;;;18.45;83.21
71970;BME280;59838;52.152;5.436;2022-07-26T07:48:42;101714.59;;;18.40;83.07
71970;BME280;59838;52.152;5.436;2022-07-26T07:51:13;101721.19;;;18.50;81.00
71970;BME280;59838;52.152;5.436;2022-07-26T07:53:39;101721.97;;;18.57;82.27
71970;BME280;59838;52.152;5.436;2022-07-26T07:56:06;101721.78;;;18.84;82.56
71970;BME280;59838;52.152;5.436;2022-07-26T07:58:33;101720.44;;;18.99;81.03
71970;BME280;59838;52.152;5.436;2022-07-26T08:00:59;101712.84;;;19.28;81.28
71970;BME280;59838;52.152;5.436;2022-07-26T08:03:25;101709.84;;;19.43;78.96
71970;BME280;59838;52.152;5.436;2022-07-26T08:06:05;101717.41;;;19.21;79.78
71970;BME280;59838;52.152;5.436;2022-07-26T08:08:33;101724.53;;;19.14;77.37
71970;BME280;59838;52.152;5.436;2022-07-26T08:11:00;101725.09;;;19.23;76.64
71970;BME280;59838;52.152;5.436;2022-07-26T08:13:26;101715.41;;;19.16;78.31
71970;BME280;59838;52.152;5.436;2022-07-26T08:15:53;101729.84;;;19.32;78.36
71970;BME280;59838;52.152;5.436;2022-07-26T08:18:22;101721.22;;;19.44;79.05
71970;BME280;59838;52.152;5.436;2022-07-26T08:20:51;101728.88;;;19.82;76.45
71970;BME280;59838;52.152;5.436;2022-07-26T08:23:18;101727.81;;;20.02;76.55
71970;BME280;59838;52.152;5.436;2022-07-26T08:25:45;101733.84;;;20.21;75.28
71970;BME280;59838;52.152;5.436;2022-07-26T08:28:22;101739.66;;;20.11;74.91
71970;BME280;59838;52.152;5.436;2022-07-26T08:31:10;101739.34;;;20.19;74.01
71970;BME280;59838;52.152;5.436;2022-07-26T08:33:36;101741.97;;;19.89;75.76
71970;BME280;59838;52.152;5.436;2022-07-26T08:36:11;101752.31;;;19.53;73.02
71970;BME280;59838;52.152;5.436;2022-07-26T08:38:39;101748.72;;;19.29;74.98
71970;BME280;59838;52.152;5.436;2022-07-26T08:41:05;101753.31;;;19.34;75.11
71970;BME280;59838;52.152;5.436;2022-07-26T08:43:33;101762.56;;;19.43;74.79
71970;BME280;59838;52.152;5.436;2022-07-26T08:46:20;101764.69;;;19.53;73.14
71970;BME280;59838;52.152;5.436;2022-07-26T08:48:50;101765.72;;;19.52;74.47
71970;BME280;59838;52.152;5.436;2022-07-26T08:51:19;101769.28;;;19.58;72.95
71970;BME280;59838;52.152;5.436;2022-07-26T08:53:48;101770.53;;;19.73;71.78
71970;BME280;59838;52.152;5.436;2022-07-26T08:56:14;101763.00;;;19.77;70.52
71970;BME280;59838;52.152;5.436;2022-07-26T08:58:41;101762.63;;;19.73;72.59
71970;BME280;59838;52.152;5.436;2022-07-26T09:01:10;101775.88;;;20.04;71.78
71970;BME280;59838;52.152;5.436;2022-07-26T09:03:41;101775.06;;;20.34;70.74
71970;BME280;59838;52.152;5.436;2022-07-26T09:06:17;101773.97;;;20.53;70.62
71970;BME280;59838;52.152;5.436;2022-07-26T09:08:45;101779.56;;;20.33;69.82
71970;BME280;59838;52.152;5.436;2022-07-26T09:13:54;101789.59;;;19.94;70.22
71970;BME280;59838;52.152;5.436;2022-07-26T09:16:21;101796.84;;;19.80;70.83
71970;BME280;59838;52.152;5.436;2022-07-26T09:18:47;101796.09;;;19.73;72.36
71970;BME280;59838;52.152;5.436;2022-07-26T09:21:31;101796.41;;;19.65;72.55
71970;BME280;59838;52.152;5.436;2022-07-26T09:23:58;101805.06;;;19.28;73.86
71970;BME280;59838;52.152;5.436;2022-07-26T09:26:25;101812.06;;;18.91;75.07
71970;BME280;59838;52.152;5.436;2022-07-26T09:29:07;101825.00;;;18.92;75.60
71970;BME280;59838;52.152;5.436;2022-07-26T09:31:36;101816.56;;;18.84;74.64
71970;BME280;59838;52.152;5.436;2022-07-26T09:34:04;101829.22;;;19.00;75.83
71970;BME280;59838;52.152;5.436;2022-07-26T09:36:32;101824.69;;;19.07;73.48
71970;BME280;59838;52.152;5.436;2022-07-26T09:39:01;101828.38;;;18.99;73.27
71970;BME280;59838;52.152;5.436;2022-07-26T09:41:30;101822.59;;;18.91;75.40
71970;BME280;59838;52.152;5.436;2022-07-26T09:44:00;101833.34;;;18.82;75.99
71970;BME280;59838;52.152;5.436;2022-07-26T09:46:28;101838.66;;;18.76;76.52
71970;BME280;59838;52.152;5.436;2022-07-26T09:48:56;101839.41;;;18.90;74.90
71970;BME280;59838;52.152;5.436;2022-07-26T09:51:41;101837.50;;;19.04;74.67
71970;BME280;59838;52.152;5.436;2022-07-26T09:54:09;101845.84;;;19.19;75.24
71970;BME280;59838;52.152;5.436;2022-07-26T09:56:45;101849.06;;;19.28;72.42
71970;BME280;59838;52.152;5.436;2022-07-26T09:59:14;101849.25;;;19.01;75.02
71970;BME280;59838;52.152;5.436;2022-07-26T10:01:41;101853.75;;;18.94;74.21
71970;BME280;59838;52.152;5.436;2022-07-26T10:04:09;101856.97;;;18.96;73.21
71970;BME280;59838;52.152;5.436;2022-07-26T10:06:36;101858.16;;;18.68;74.54
71970;BME280;59838;52.152;5.436;2022-07-26T10:09:04;101852.84;;;18.75;74.15
71970;BME280;59838;52.152;5.436;2022-07-26T10:11:36;101861.69;;;18.80;74.91
71970;BME280;59838;52.152;5.436;2022-07-26T10:20:07;101868.63;;;19.13;73.11
71970;BME280;59838;52.152;5.436;2022-07-26T10:22:46;101867.72;;;19.26;73.44
71970;BME280;59838;52.152;5.436;2022-07-26T10:27:56;101872.38;;;19.93;69.04
71970;BME280;59838;52.152;5.436;2022-07-26T10:30:25;101874.19;;;20.30;68.37
71970;BME280;59838;52.152;5.436;2022-07-26T10:40:59;101869.97;;;20.40;65.69
71970;BME280;59838;52.152;5.436;2022-07-26T10:43:27;101886.81;;;20.09;66.91
71970;BME280;59838;52.152;5.436;2022-07-26T10:48:59;101893.84;;;19.78;68.28
71970;BME280;59838;52.152;5.436;2022-07-26T10:51:34;101882.25;;;19.79;67.70
71970;BME280;59838;52.152;5.436;2022-07-26T10:54:04;101885.75;;;19.73;65.90
71970;BME280;59838;52.152;5.436;2022-07-26T10:56:30;101884.25;;;19.59;67.47
71970;BME280;59838;52.152;5.436;2022-07-26T10:58:59;101891.59;;;19.50;68.30
71970;BME280;59838;52.152;5.436;2022-07-26T11:01:33;101896.34;;;19.41;67.00
71970;BME280;59838;52.152;5.436;2022-07-26T11:04:00;101895.28;;;19.24;67.36
71970;BME280;59838;52.152;5.436;2022-07-26T11:06:28;101893.63;;;19.29;68.08
71970;BME280;59838;52.152;5.436;2022-07-26T11:08:57;101890.31;;;19.34;68.40
71970;BME280;59838;52.152;5.436;2022-07-26T11:11:28;101897.78;;;19.62;69.17
71970;BME280;59838;52.152;5.436;2022-07-26T11:14:06;101893.88;;;19.71;68.21
71970;BME280;59838;52.152;5.436;2022-07-26T11:16:47;101899.09;;;19.78;66.24
71970;BME280;59838;52.152;5.436;2022-07-26T11:19:19;101908.72;;;19.91;67.88
71970;BME280;59838;52.152;5.436;2022-07-26T11:21:52;101906.13;;;20.21;64.82
71970;BME280;59838;52.152;5.436;2022-07-26T11:24:19;101900.06;;;20.21;65.88
71970;BME280;59838;52.152;5.436;2022-07-26T11:26:47;101903.38;;;19.98;64.43
71970;BME280;59838;52.152;5.436;2022-07-26T11:29:13;101916.69;;;19.84;65.48
71970;BME280;59838;52.152;5.436;2022-07-26T11:31:45;101912.28;;;19.97;66.78
71970;BME280;59838;52.152;5.436;2022-07-26T11:34:27;101917.47;;;20.59;62.62
71970;BME280;59838;52.152;5.436;2022-07-26T11:36:56;101914.34;;;21.11;60.59
71970;BME280;59838;52.152;5.436;2022-07-26T11:39:28;101922.28;;;21.34;60.31
71970;BME280;59838;52.152;5.436;2022-07-26T11:41:57;101922.31;;;21.46;59.99
71970;BME280;59838;52.152;5.436;2022-07-26T11:44:24;101922.91;;;21.60;57.97
71970;BME280;59838;52.152;5.436;2022-07-26T11:46:50;101919.38;;;21.66;58.17
71970;BME280;59838;52.152;5.436;2022-07-26T11:52:01;101934.34;;;20.58;60.99
71970;BME280;59838;52.152;5.436;2022-07-26T11:54:31;101936.31;;;20.44;61.85
71970;BME280;59838;52.152;5.436;2022-07-26T11:56:59;101939.78;;;20.44;61.15
71970;BME280;59838;52.152;5.436;2022-07-26T11:59:28;101942.78;;;20.11;61.45
71970;BME280;59838;52.152;5.436;2022-07-26T12:01:56;101940.00;;;20.24;63.49
71970;BME280;59838;52.152;5.436;2022-07-26T12:04:26;101943.13;;;20.52;61.82
71970;BME280;59838;52.152;5.436;2022-07-26T12:06:54;101942.34;;;20.70;60.74
71970;BME280;59838;52.152;5.436;2022-07-26T12:09:32;101937.69;;;20.84;60.11
71970;BME280;59838;52.152;5.436;2022-07-26T12:12:03;101936.63;;;20.85;59.93
71970;BME280;59838;52.152;5.436;2022-07-26T12:14:33;101932.78;;;20.99;61.24
71970;BME280;59838;52.152;5.436;2022-07-26T12:17:16;101940.00;;;21.34;60.47
71970;BME280;59838;52.152;5.436;2022-07-26T12:19:44;101943.56;;;21.40;57.88
71970;BME280;59838;52.152;5.436;2022-07-26T12:22:13;101941.28;;;21.43;60.23
71970;BME280;59838;52.152;5.436;2022-07-26T12:27:20;101928.97;;;22.20;55.85
71970;BME280;59838;52.152;5.436;2022-07-26T12:29:51;101938.28;;;22.34;54.04
71970;BME280;59838;52.152;5.436;2022-07-26T12:32:30;101942.53;;;22.64;54.26
71970;BME280;59838;52.152;5.436;2022-07-26T12:35:06;101941.19;;;22.61;53.82
71970;BME280;59838;52.152;5.436;2022-07-26T12:37:52;101944.53;;;22.57;53.25
71970;BME280;59838;52.152;5.436;2022-07-26T12:40:24;101948.78;;;22.05;53.19
71970;BME280;59838;52.152;5.436;2022-07-26T12:45:26;101947.59;;;21.42;56.14
71970;BME280;59838;52.152;5.436;2022-07-26T12:47:54;101947.19;;;21.57;55.75
71970;BME280;59838;52.152;5.436;2022-07-26T12:50:23;101946.94;;;21.59;55.61
71970;BME280;59838;52.152;5.436;2022-07-26T12:52:50;101948.13;;;21.63;55.23
71970;BME280;59838;52.152;5.436;2022-07-26T12:55:18;101958.22;;;21.54;56.56
71970;BME280;59838;52.152;5.436;2022-07-26T12:57:47;101946.84;;;21.77;55.15
71970;BME280;59838;52.152;5.436;2022-07-26T13:00:21;101939.50;;;21.67;53.95
71970;BME280;59838;52.152;5.436;2022-07-26T13:02:47;101960.16;;;21.59;54.14
71970;BME280;59838;52.152;5.436;2022-07-26T13:05:14;101956.63;;;21.88;53.46
71970;BME280;59838;52.152;5.436;2022-07-26T13:07:41;101961.22;;;21.69;55.46
71970;BME280;59838;52.152;5.436;2022-07-26T13:10:08;101968.31;;;21.57;53.56
71970;BME280;59838;52.152;5.436;2022-07-26T13:12:55;101957.53;;;21.82;54.50
71970;BME280;59838;52.152;5.436;2022-07-26T13:15:21;101955.91;;;21.93;53.00
71970;BME280;59838;52.152;5.436;2022-07-26T13:18:00;101962.34;;;22.09;54.06
71970;BME280;59838;52.152;5.436;2022-07-26T13:20:27;101957.16;;;22.26;55.41
71970;BME280;59838;52.152;5.436;2022-07-26T13:22:53;101969.03;;;21.88;52.57
71970;BME280;59838;52.152;5.436;2022-07-26T13:25:20;101970.94;;;21.45;55.50
71970;BME280;59838;52.152;5.436;2022-07-26T13:27:46;101974.44;;;21.69;56.87